createdAt,value
2019-02-05T00:01:37.682Z,37.77
2019-02-05T00:04:08.069Z,37.77
2019-02-05T00:06:39.577Z,37.75
2019-02-05T00:09:10.287Z,38.02
2019-02-05T00:11:40.804Z,38.02
2019-02-05T00:14:11.088Z,38.12
2019-02-05T00:16:41.691Z,38.01
2019-02-05T00:19:10.981Z,38.01
2019-02-05T00:21:42.106Z,38.00
2019-02-05T00:24:13.048Z,37.76
2019-02-05T00:26:42.840Z,37.76
2019-02-05T00:29:13.823Z,37.99
2019-02-05T00:31:42.892Z,37.88
2019-02-05T00:34:13.613Z,37.62
2019-02-05T00:36:41.828Z,37.62
2019-02-05T00:39:12.845Z,37.71
2019-02-05T00:41:41.786Z,37.67
2019-02-05T00:45:40.735Z,37.42
2019-02-05T00:48:09.213Z,37.22
2019-02-05T00:50:40.148Z,37.22
2019-02-05T00:53:10.088Z,37.36
2019-02-05T00:55:39.345Z,37.47
2019-02-05T00:58:08.723Z,37.62
2019-02-05T01:00:37.884Z,37.62
2019-02-05T01:03:07.063Z,37.60
2019-02-05T01:05:37.031Z,37.60
2019-02-05T01:08:07.743Z,37.77
2019-02-05T01:10:39.747Z,37.77
2019-02-05T01:13:08.944Z,37.80
2019-02-05T01:15:37.721Z,37.52
2019-02-05T01:18:06.707Z,37.52
2019-02-05T01:20:37.177Z,37.70
2019-02-05T01:23:06.982Z,37.55
2019-02-05T01:25:37.141Z,37.55
2019-02-05T01:28:06.858Z,37.57
2019-02-05T01:30:36.222Z,37.57
2019-02-05T01:33:05.905Z,37.58
2019-02-05T01:35:36.882Z,37.73
2019-02-05T01:38:07.114Z,37.91
2019-02-05T01:40:40.805Z,37.47
2019-02-05T01:43:09.820Z,37.47
2019-02-05T01:45:38.836Z,37.63
2019-02-05T01:48:09.798Z,37.84
2019-02-05T01:50:39.804Z,37.78
2019-02-05T01:53:12.818Z,37.61
2019-02-05T01:55:42.801Z,37.61
2019-02-05T01:58:14.659Z,37.13
2019-02-05T02:00:45.789Z,37.13
2019-02-05T02:03:15.928Z,37.57
2019-02-05T02:05:46.858Z,37.83
2019-02-05T02:08:16.807Z,37.90
2019-02-05T02:13:13.717Z,37.93
2019-02-05T02:15:43.732Z,37.87
2019-02-05T02:18:13.319Z,37.60
2019-02-05T02:20:42.937Z,37.60
2019-02-05T02:23:13.908Z,37.90
2019-02-05T02:25:46.864Z,37.73
2019-02-05T02:28:17.848Z,37.40
2019-02-05T02:30:47.882Z,37.59
2019-02-05T02:33:19.809Z,37.34
2019-02-05T02:35:51.838Z,37.34
2019-02-05T02:38:21.847Z,37.59
2019-02-05T02:40:52.615Z,37.74
2019-02-05T02:43:26.830Z,37.74
2019-02-05T02:45:56.885Z,37.75
2019-02-05T02:48:27.895Z,37.38
2019-02-05T02:50:59.147Z,37.38
2019-02-05T02:53:29.794Z,37.76
2019-02-05T02:55:59.820Z,37.76
2019-02-05T02:58:30.676Z,37.77
2019-02-05T03:01:01.550Z,37.67
2019-02-05T03:03:32.071Z,37.53
2019-02-05T03:06:03.106Z,37.40
2019-02-05T03:08:34.813Z,37.54
2019-02-05T03:11:04.744Z,37.54
2019-02-05T03:13:37.871Z,37.62
2019-02-05T03:16:08.082Z,37.83
2019-02-05T03:18:39.960Z,37.84
2019-02-05T03:21:11.815Z,37.83
2019-02-05T03:23:41.874Z,37.98
2019-02-05T03:26:11.939Z,37.61
2019-02-05T03:28:41.846Z,37.61
2019-02-05T03:31:11.810Z,37.61
2019-02-05T03:33:43.865Z,37.68
2019-02-05T03:36:13.846Z,37.47
2019-02-05T03:38:43.796Z,37.47
2019-02-05T03:41:15.010Z,37.54
2019-02-05T03:44:17.830Z,37.39
2019-02-05T03:46:47.501Z,37.39
2019-02-05T03:49:18.595Z,37.70
2019-02-05T03:52:17.847Z,37.70
2019-02-05T03:56:05.864Z,37.46
2019-02-05T03:59:10.068Z,37.84
2019-02-05T04:02:19.032Z,37.84
2019-02-05T04:05:33.068Z,37.62
2019-02-05T04:08:46.940Z,37.62
2019-02-05T04:12:01.701Z,37.70
2019-02-05T04:15:37.318Z,37.54
2019-02-05T04:18:32.941Z,37.37
2019-02-05T04:22:11.070Z,37.37
2019-02-05T04:25:19.065Z,37.51
2019-02-05T04:28:32.361Z,37.46
2019-02-05T04:32:00.962Z,37.46
2019-02-05T04:35:07.879Z,37.54
2019-02-05T04:38:42.870Z,37.50
2019-02-05T04:42:26.002Z,37.25
2019-02-05T04:45:48.231Z,37.25
2019-02-05T04:49:01.863Z,37.39
2019-02-05T04:52:50.277Z,37.39
2019-02-05T04:56:07.158Z,37.39
2019-02-05T04:59:18.876Z,37.45
2019-02-05T05:02:29.852Z,37.36
2019-02-05T05:06:02.672Z,37.39
2019-02-05T05:09:19.904Z,37.35
2019-02-05T05:11:51.727Z,37.53
2019-02-05T05:15:17.643Z,37.97
2019-02-05T05:17:47.826Z,37.97
2019-02-05T05:20:19.408Z,37.84
2019-02-05T05:22:49.327Z,37.62
2019-02-05T05:25:21.109Z,37.92
2019-02-05T05:27:50.388Z,37.89
2019-02-05T05:30:20.838Z,38.21
2019-02-05T05:32:51.940Z,37.79
2019-02-05T05:35:22.829Z,38.11
2019-02-05T05:37:53.829Z,37.88
2019-02-05T05:40:24.809Z,38.37
2019-02-05T05:42:54.758Z,38.30
2019-02-05T05:45:23.749Z,38.28
2019-02-05T05:47:53.836Z,38.28
2019-02-05T05:50:23.759Z,38.25
2019-02-05T05:52:55.355Z,38.25
2019-02-05T05:55:23.865Z,38.26
2019-02-05T05:57:53.986Z,38.11
2019-02-05T06:00:22.819Z,38.14
2019-02-05T06:02:52.338Z,38.07
2019-02-05T06:05:25.026Z,38.22
2019-02-05T06:07:56.672Z,38.17
2019-02-05T06:10:26.716Z,38.23
2019-02-05T06:12:56.927Z,38.54
2019-02-05T06:18:10.800Z,38.27
2019-02-05T06:20:41.781Z,38.12
2019-02-05T06:23:12.349Z,38.20
2019-02-05T06:26:12.614Z,38.06
2019-02-05T06:28:42.740Z,38.73
2019-02-05T06:31:12.096Z,38.08
2019-02-05T06:33:44.153Z,38.08
2019-02-05T06:36:15.882Z,37.91
2019-02-05T06:38:45.295Z,37.73
2019-02-05T06:42:19.622Z,37.87
2019-02-05T06:44:52.047Z,38.04
2019-02-05T06:47:20.798Z,38.04
2019-02-05T06:49:52.933Z,38.30
2019-02-05T06:52:21.919Z,38.22
2019-02-05T06:54:52.275Z,38.04
2019-02-05T06:57:22.035Z,38.43
2019-02-05T06:59:53.898Z,38.43
2019-02-05T07:02:23.721Z,37.94
2019-02-05T07:04:55.341Z,37.94
2019-02-05T07:07:27.414Z,38.35
2019-02-05T07:09:58.677Z,38.35
2019-02-05T07:12:28.731Z,38.31
2019-02-05T07:14:58.598Z,38.14
2019-02-05T07:17:28.709Z,38.14
2019-02-05T07:19:59.951Z,38.15
2019-02-05T07:22:28.705Z,38.16
2019-02-05T07:24:59.871Z,38.12
2019-02-05T07:27:31.718Z,38.19
2019-02-05T07:30:01.383Z,38.29
2019-02-05T07:32:30.932Z,38.16
2019-02-05T07:35:00.394Z,38.16
2019-02-05T07:37:30.660Z,39.31
2019-02-05T07:40:00.374Z,39.01
2019-02-05T07:42:30.269Z,38.68
2019-02-05T07:45:00.599Z,38.77
2019-02-05T07:47:31.552Z,38.40
2019-02-05T07:50:00.340Z,37.86
2019-02-05T07:52:30.024Z,37.89
2019-02-05T07:54:58.954Z,37.56
2019-02-05T07:57:30.185Z,37.39
2019-02-05T07:59:59.746Z,37.39
2019-02-05T08:02:30.113Z,37.35
2019-02-05T08:05:01.634Z,37.43
2019-02-05T08:07:32.076Z,37.43
2019-02-05T08:10:01.730Z,37.33
2019-02-05T08:12:31.086Z,37.34
2019-02-05T08:16:15.871Z,37.02
2019-02-05T08:18:45.604Z,37.57
2019-02-05T08:21:15.908Z,37.57
2019-02-05T08:25:20.277Z,37.34
2019-02-05T08:27:48.879Z,37.34
2019-02-05T08:32:00.957Z,37.23
2019-02-05T08:34:29.786Z,36.79
2019-02-05T08:36:59.703Z,36.79
2019-02-05T08:39:28.334Z,37.08
2019-02-05T08:41:58.706Z,37.21
2019-02-05T08:44:26.857Z,37.23
2019-02-05T08:46:57.359Z,36.99
2019-02-05T08:49:26.869Z,36.99
2019-02-05T08:51:55.409Z,37.29
2019-02-05T08:54:26.094Z,36.91
2019-02-05T08:56:56.812Z,36.85
2019-02-05T08:59:25.872Z,36.57
2019-02-05T09:01:55.823Z,36.83
2019-02-05T09:04:24.823Z,36.83
2019-02-05T09:06:55.364Z,36.72
2019-02-05T09:09:24.857Z,36.63
2019-02-05T09:11:55.060Z,36.47
2019-02-05T09:14:23.800Z,36.47
2019-02-05T09:16:53.930Z,36.51
2019-02-05T09:19:22.791Z,36.69
2019-02-05T09:21:50.776Z,36.54
2019-02-05T09:24:19.355Z,36.48
2019-02-05T09:26:48.642Z,36.64
2019-02-05T09:29:17.769Z,36.50
2019-02-05T09:31:46.732Z,36.50
2019-02-05T09:34:16.290Z,36.47
2019-02-05T09:36:45.773Z,36.50
2019-02-05T09:39:15.924Z,36.52
2019-02-05T09:41:44.354Z,36.50
2019-02-05T09:44:15.946Z,36.50
2019-02-05T09:46:45.969Z,36.52
2019-02-05T09:49:14.058Z,36.51
2019-02-05T09:51:43.328Z,36.48
2019-02-05T09:54:13.968Z,36.48
2019-02-05T09:56:43.106Z,36.31
2019-02-05T09:59:12.431Z,36.32
2019-02-05T10:01:41.382Z,36.32
2019-02-05T10:04:10.766Z,36.44
2019-02-05T10:06:38.748Z,36.33
2019-02-05T10:09:07.776Z,36.33
2019-02-05T10:11:36.713Z,36.17
2019-02-05T10:14:07.010Z,36.24
2019-02-05T10:16:36.911Z,36.03
2019-02-05T10:19:05.047Z,36.39
2019-02-05T10:21:34.075Z,36.34
2019-02-05T10:24:02.102Z,36.12
2019-02-05T10:38:14.215Z,36.41
2019-02-05T10:40:42.797Z,36.24
2019-02-05T10:44:15.425Z,36.21
2019-02-05T10:46:44.783Z,36.36
2019-02-05T10:49:14.951Z,36.12
2019-02-05T10:51:42.752Z,36.39
2019-02-05T11:09:11.848Z,36.39
2019-02-05T11:11:40.773Z,36.40
2019-02-05T11:14:10.087Z,36.32
2019-02-05T11:16:38.779Z,36.32
2019-02-05T11:19:08.618Z,36.39
2019-02-05T11:21:38.761Z,36.36
2019-02-05T11:24:07.867Z,36.36
2019-02-05T11:26:36.871Z,36.23
2019-02-05T11:29:05.682Z,36.23
2019-02-05T11:31:35.097Z,36.13
2019-02-05T11:34:07.081Z,36.09
2019-02-05T11:36:35.382Z,36.10
2019-02-05T11:39:05.342Z,36.10
2019-02-05T11:41:34.686Z,36.12
2019-02-05T11:44:02.031Z,36.08
2019-02-05T11:46:32.223Z,36.11
2019-02-05T11:49:00.857Z,36.14
2019-02-05T11:51:28.687Z,36.25
2019-02-05T11:53:57.341Z,36.25
2019-02-05T11:56:29.307Z,35.77
2019-02-05T11:58:57.776Z,35.77
2019-02-05T12:01:39.132Z,36.20
2019-02-05T12:04:06.143Z,36.02
2019-02-05T12:06:35.877Z,36.02
2019-02-05T12:09:20.811Z,36.07
2019-02-05T12:11:53.757Z,36.11
2019-02-05T12:14:23.760Z,36.11
2019-02-05T12:16:52.809Z,36.58
2019-02-05T12:19:21.796Z,36.58
2019-02-05T12:21:52.792Z,36.13
2019-02-05T12:24:22.854Z,35.95
2019-02-05T12:26:52.838Z,35.67
2019-02-05T12:29:21.778Z,36.07
2019-02-05T12:31:51.884Z,35.71
2019-02-05T12:34:20.751Z,36.03
2019-02-05T12:36:49.710Z,35.57
2019-02-05T12:39:20.823Z,35.85
2019-02-05T12:41:50.727Z,35.85
2019-02-05T12:44:19.800Z,35.86
2019-02-05T12:46:50.535Z,35.68
2019-02-05T12:49:20.625Z,35.68
2019-02-05T12:51:50.747Z,35.86
2019-02-05T12:54:20.615Z,35.81
2019-02-05T12:56:48.792Z,35.81
2019-02-05T12:59:18.773Z,35.90
2019-02-05T13:01:48.844Z,35.96
2019-02-05T13:04:17.732Z,35.88
2019-02-05T13:06:47.746Z,35.90
2019-02-05T13:11:59.837Z,35.72
2019-02-05T13:14:29.731Z,35.77
2019-02-05T13:17:00.787Z,35.77
2019-02-05T13:19:31.720Z,35.52
2019-02-05T13:22:02.795Z,35.52
2019-02-05T13:24:32.027Z,35.74
2019-02-05T13:27:01.321Z,35.74
2019-02-05T13:29:32.061Z,35.74
2019-02-05T13:32:02.750Z,35.61
2019-02-05T13:34:30.721Z,35.70
2019-02-05T13:36:58.911Z,35.72
2019-02-05T13:39:27.364Z,35.72
2019-02-05T13:41:56.865Z,35.72
2019-02-05T13:44:26.493Z,35.49
2019-02-05T13:46:56.298Z,35.49
2019-02-05T13:49:25.760Z,35.63
2019-02-05T13:51:55.982Z,35.58
2019-02-05T13:54:26.842Z,35.60
2019-02-05T13:56:56.909Z,35.60
2019-02-05T13:59:25.382Z,35.62
2019-02-05T14:01:55.784Z,35.62
2019-02-05T14:04:25.853Z,35.48
2019-02-05T14:06:55.791Z,35.76
2019-02-05T14:09:25.787Z,35.74
2019-02-05T14:11:55.800Z,35.74
2019-02-05T14:14:24.699Z,35.63
2019-02-05T14:16:55.377Z,35.17
2019-02-05T14:19:24.293Z,35.17
2019-02-05T14:21:55.716Z,35.48
2019-02-05T14:24:23.778Z,35.68
2019-02-05T14:26:53.975Z,35.68
2019-02-05T14:29:23.835Z,35.75
2019-02-05T14:31:53.944Z,35.17
2019-02-05T14:34:23.705Z,35.33
2019-02-05T14:36:53.372Z,35.26
2019-02-05T14:39:22.863Z,35.26
2019-02-05T14:41:53.770Z,35.43
2019-02-05T14:44:22.837Z,35.43
2019-02-05T14:46:52.695Z,35.39
2019-02-05T14:49:23.962Z,35.51
2019-02-05T14:51:57.711Z,35.59
2019-02-05T14:54:27.818Z,35.59
2019-02-05T14:56:57.370Z,35.82
2019-02-05T14:59:27.824Z,35.82
2019-02-05T15:01:57.841Z,35.60
2019-02-05T15:04:28.929Z,35.63
2019-02-05T15:09:16.995Z,35.49
2019-02-05T15:11:45.371Z,35.63
2019-02-05T15:14:15.422Z,35.63
2019-02-05T15:16:43.877Z,35.77
2019-02-05T15:19:13.792Z,35.95
2019-02-05T15:21:42.370Z,35.95
2019-02-05T15:24:12.731Z,35.87
2019-02-05T15:26:42.301Z,35.86
2019-02-05T15:29:13.589Z,36.01
2019-02-05T15:31:53.797Z,36.23
2019-02-05T15:34:21.854Z,36.18
2019-02-05T15:36:50.780Z,35.99
2019-02-05T15:39:21.401Z,35.99
2019-02-05T15:41:49.666Z,36.08
2019-02-05T15:44:19.646Z,36.20
2019-02-05T15:46:48.771Z,36.07
2019-02-05T15:49:19.859Z,36.07
2019-02-05T15:51:49.697Z,36.25
2019-02-05T15:54:20.288Z,36.21
2019-02-05T15:56:50.309Z,36.19
2019-02-05T15:59:19.855Z,36.19
2019-02-05T16:01:47.748Z,36.38
2019-02-05T16:04:18.366Z,36.38
2019-02-05T16:06:49.480Z,36.43
2019-02-05T16:09:20.912Z,36.62
2019-02-05T16:11:50.822Z,36.62
2019-02-05T16:14:21.546Z,36.46
2019-02-05T16:16:51.631Z,36.47
2019-02-05T16:19:22.327Z,36.53
2019-02-05T16:21:50.723Z,36.55
2019-02-05T16:24:20.962Z,36.63
2019-02-05T16:26:50.920Z,36.72
2019-02-05T16:29:21.744Z,36.88
2019-02-05T16:31:50.981Z,36.88
2019-02-05T16:34:19.899Z,36.85
2019-02-05T16:36:50.069Z,37.07
2019-02-05T16:39:21.742Z,37.04
2019-02-05T16:41:57.729Z,37.04
2019-02-05T16:44:28.431Z,36.90
2019-02-05T16:46:56.721Z,36.80
2019-02-05T16:49:25.445Z,36.98
2019-02-05T16:51:54.826Z,36.87
2019-02-05T16:54:23.675Z,36.87
2019-02-05T16:56:52.775Z,36.86
2019-02-05T16:59:23.793Z,36.86
2019-02-05T17:01:53.777Z,37.20
2019-02-05T17:04:24.849Z,37.35
2019-02-05T17:06:54.897Z,37.21
2019-02-05T17:09:25.776Z,36.50
2019-02-05T17:11:56.832Z,36.96
2019-02-05T17:14:24.833Z,36.96
2019-02-05T17:16:53.389Z,36.87
2019-02-05T17:19:22.107Z,36.87
2019-02-05T17:21:52.811Z,36.84
2019-02-05T17:24:21.874Z,36.84
2019-02-05T17:26:52.856Z,36.60
2019-02-05T17:29:21.762Z,36.57
2019-02-05T17:31:51.851Z,36.57
2019-02-05T17:34:19.891Z,36.15
2019-02-05T17:36:47.999Z,35.52
2019-02-05T17:39:17.802Z,35.92
2019-02-05T17:41:46.795Z,35.16
2019-02-05T17:44:16.909Z,35.16
2019-02-05T17:46:46.731Z,36.16
2019-02-05T17:49:16.942Z,36.16
2019-02-05T17:51:46.060Z,36.71
2019-02-05T17:54:17.435Z,36.71
2019-02-05T17:56:47.597Z,36.73
2019-02-05T17:59:17.620Z,36.66
2019-02-05T18:01:47.321Z,36.88
2019-02-05T18:04:16.978Z,37.08
2019-02-05T18:06:45.884Z,37.79
2019-02-05T18:09:14.953Z,37.64
2019-02-05T18:11:43.660Z,37.64
2019-02-05T18:14:12.533Z,37.55
2019-02-05T18:16:41.975Z,37.91
2019-02-05T18:19:12.760Z,38.20
2019-02-05T18:21:42.015Z,38.44
2019-02-05T18:24:12.041Z,38.44
2019-02-05T18:28:34.921Z,38.42
2019-02-05T18:31:04.627Z,38.34
2019-02-05T18:33:35.954Z,37.87
2019-02-05T18:36:06.849Z,38.22
2019-02-05T18:38:39.255Z,37.92
2019-02-05T18:41:11.684Z,37.92
2019-02-05T18:43:40.732Z,37.96
2019-02-05T18:46:12.934Z,37.96
2019-02-05T18:48:42.735Z,38.33
2019-02-05T18:51:16.674Z,38.33
2019-02-05T18:53:50.033Z,38.04
2019-02-05T18:56:20.097Z,38.04
2019-02-05T18:58:49.660Z,38.40
2019-02-05T19:01:20.757Z,38.18
2019-02-05T19:03:48.800Z,38.18
2019-02-05T19:08:10.793Z,36.78
2019-02-05T19:10:41.366Z,36.95
2019-02-05T19:14:23.448Z,37.59
2019-02-05T19:16:53.795Z,37.13
2019-02-05T19:19:28.006Z,36.78
2019-02-05T19:22:02.638Z,36.78
2019-02-05T19:25:00.812Z,37.72
2019-02-05T19:27:34.467Z,36.63
2019-02-05T19:30:06.399Z,37.41
2019-02-05T19:32:36.941Z,37.40
2019-02-05T19:35:07.779Z,37.35
2019-02-05T19:39:30.557Z,37.44
2019-02-05T19:44:04.021Z,37.49
2019-02-05T19:46:51.013Z,37.49
2019-02-05T19:49:31.686Z,37.65
2019-02-05T19:52:02.736Z,36.71
2019-02-05T19:54:32.594Z,36.73
2019-02-05T19:57:02.112Z,36.73
2019-02-05T19:59:33.634Z,36.37
2019-02-05T20:02:03.644Z,36.78
2019-02-05T20:04:36.837Z,36.89
2019-02-05T20:07:05.761Z,37.16
2019-02-05T20:09:36.580Z,37.04
2019-02-05T20:12:05.633Z,37.04
2019-02-05T20:16:24.688Z,37.10
2019-02-05T20:18:56.577Z,37.18
2019-02-05T20:21:31.863Z,37.18
2019-02-05T20:24:16.618Z,36.96
2019-02-05T20:26:47.662Z,37.05
2019-02-05T20:29:16.987Z,36.82
2019-02-05T20:31:49.419Z,36.42
2019-02-05T20:34:18.730Z,35.69
2019-02-05T20:36:51.526Z,36.37
2019-02-05T20:39:20.384Z,36.37
2019-02-05T20:41:52.415Z,36.44
2019-02-05T20:44:20.964Z,37.17
2019-02-05T20:46:52.798Z,36.92
2019-02-05T20:49:25.769Z,36.92
2019-02-05T20:51:55.575Z,36.90
2019-02-05T20:54:24.827Z,36.90
2019-02-05T20:56:53.699Z,37.06
2019-02-05T20:59:21.996Z,37.06
2019-02-05T21:01:51.675Z,36.82
2019-02-05T21:04:20.952Z,36.82
2019-02-05T21:06:52.349Z,36.45
2019-02-05T21:09:22.753Z,36.59
2019-02-05T21:11:52.760Z,36.59
2019-02-05T21:14:22.770Z,36.54
2019-02-05T21:16:52.230Z,36.54
2019-02-05T21:19:22.594Z,37.05
2019-02-05T21:21:53.340Z,37.12
2019-02-05T21:24:21.639Z,36.95
2019-02-05T21:26:51.670Z,37.28
2019-02-05T21:29:20.035Z,37.63
2019-02-05T21:31:49.390Z,37.23
2019-02-05T21:34:18.426Z,37.53
2019-02-05T21:39:30.315Z,36.81
2019-02-05T21:41:59.970Z,36.81
2019-02-05T21:44:30.814Z,36.63
2019-02-05T21:46:59.958Z,36.54
2019-02-05T21:49:30.369Z,36.54
2019-02-05T21:53:41.175Z,36.90
2019-02-05T21:56:12.095Z,36.90
2019-02-05T21:58:40.708Z,36.86
2019-02-05T22:01:10.675Z,37.38
2019-02-05T22:03:38.655Z,37.38
2019-02-05T22:06:09.939Z,37.61
2019-02-05T22:08:39.930Z,37.42
2019-02-05T22:11:08.719Z,37.42
2019-02-05T22:13:40.228Z,37.35
2019-02-05T22:16:11.429Z,37.35
2019-02-05T22:18:41.912Z,37.49
2019-02-05T22:21:12.136Z,37.71
2019-02-05T22:23:43.639Z,37.71
2019-02-05T22:26:13.561Z,37.47
2019-02-05T22:30:58.170Z,36.59
2019-02-05T22:33:29.022Z,36.90
2019-02-05T22:36:00.100Z,36.90
2019-02-05T22:38:27.258Z,37.72
2019-02-05T22:40:55.998Z,37.80
2019-02-05T22:43:26.016Z,37.80
2019-02-05T22:46:30.809Z,37.62
2019-02-05T22:49:06.777Z,37.70
2019-02-05T22:51:37.172Z,37.70
2019-02-05T22:54:06.008Z,36.91
2019-02-05T22:56:34.971Z,36.82
2019-02-05T22:59:04.108Z,36.82
2019-02-05T23:01:54.750Z,37.48
2019-02-05T23:05:27.621Z,36.77
2019-02-05T23:07:57.267Z,37.61
2019-02-05T23:11:03.456Z,38.00
2019-02-05T23:13:31.633Z,37.78
2019-02-05T23:16:00.981Z,37.78
2019-02-05T23:18:30.797Z,37.38
2019-02-05T23:20:59.704Z,37.20
2019-02-05T23:23:28.922Z,37.20
2019-02-05T23:25:58.037Z,36.98
2019-02-05T23:28:27.709Z,36.98
2019-02-05T23:30:57.739Z,37.16
2019-02-05T23:36:05.272Z,36.93
2019-02-05T23:38:34.668Z,37.02
2019-02-05T23:41:04.552Z,37.02
2019-02-05T23:43:34.704Z,37.26
2019-02-05T23:46:04.048Z,36.75
2019-02-05T23:48:34.666Z,36.75
2019-02-05T23:51:04.000Z,36.92
2019-02-05T23:53:33.330Z,36.73
2019-02-05T23:56:05.394Z,37.05
2019-02-05T23:58:35.717Z,37.05
